Thrali, Washington
Current Conditions -  °F | °C
As of 4:30 PM on Sunday 25 Jan 2015 (Local Time) from KELN Reporting Station
Haze Haze  
Wind Chill: 44°   Ceiling: Unl
Heat Index: 44°   Visibility: 5mi
Dew Point: 40°   Wind: 3mph
Humidity: 85%   Direction: 260°W
Pressure: 30.15"   Gusts: NA
Location:  47.0155°N, 120.311°W
Report Text: KELN 260030Z AUTO 26003KT 5SM BR SCT003 07/04 A3015 RMK AO2 T00670044
Loading
Personal Weather Stations






























Interactive Weather Map New forecast layout! Learn more

10-Day Weather Forecast

Advertisements
Track Severe Weather on mobile